createdAt,value
2019-03-25T00:00:04.172Z,54.63
2019-03-25T00:02:33.011Z,57.87
2019-03-25T00:05:01.879Z,63.27
2019-03-25T00:07:30.747Z,55.10
2019-03-25T00:09:59.565Z,59.40
2019-03-25T00:12:28.416Z,61.63
2019-03-25T00:14:57.230Z,56.27
2019-03-25T00:17:26.102Z,60.63
2019-03-25T00:19:54.967Z,60.47
2019-03-25T00:22:23.786Z,58.27
2019-03-25T00:24:52.642Z,61.73
2019-03-25T00:27:21.523Z,56.87
2019-03-25T00:29:50.376Z,58.53
2019-03-25T00:32:19.232Z,48.63
2019-03-25T00:34:48.115Z,57.13
2019-03-25T00:37:16.950Z,51.93
2019-03-25T00:39:45.817Z,53.17
2019-03-25T00:42:14.646Z,48.60
2019-03-25T00:44:43.506Z,56.57
2019-03-25T00:47:12.392Z,56.07
2019-03-25T00:49:41.257Z,54.70
2019-03-25T00:52:10.119Z,56.50
2019-03-25T00:54:49.883Z,55.43
2019-03-25T00:57:13.851Z,57.37
2019-03-25T00:59:42.737Z,60.47
2019-03-25T01:02:11.566Z,61.20
2019-03-25T01:04:40.467Z,61.67
2019-03-25T01:07:09.281Z,62.50
2019-03-25T01:09:38.146Z,58.17
2019-03-25T01:12:06.996Z,52.93
2019-03-25T01:14:35.885Z,54.30
2019-03-25T01:17:04.805Z,56.73
2019-03-25T01:19:33.623Z,50.73
2019-03-25T01:22:02.442Z,59.87
2019-03-25T01:24:31.289Z,53.43
2019-03-25T01:27:00.143Z,57.20
2019-03-25T01:29:29.013Z,53.90
2019-03-25T01:31:57.826Z,63.23
2019-03-25T01:34:26.733Z,68.60
2019-03-25T01:36:55.595Z,61.73
2019-03-25T01:39:24.396Z,61.87
2019-03-25T01:41:53.237Z,63.53
2019-03-25T01:44:22.091Z,63.40
2019-03-25T01:46:50.946Z,58.60
2019-03-25T01:49:19.815Z,62.90
2019-03-25T01:51:48.694Z,67.07
2019-03-25T01:54:17.512Z,55.77
2019-03-25T01:56:46.373Z,62.03
2019-03-25T01:59:15.231Z,63.90
2019-03-25T02:01:44.072Z,66.13
2019-03-25T02:04:12.908Z,65.93
2019-03-25T02:06:41.748Z,61.87
2019-03-25T02:09:10.592Z,61.47
2019-03-25T02:11:39.455Z,60.10
2019-03-25T02:14:08.289Z,52.57
2019-03-25T02:16:37.138Z,52.40
2019-03-25T02:19:05.955Z,58.93
2019-03-25T02:21:34.859Z,60.00
2019-03-25T02:24:03.716Z,58.80
2019-03-25T02:26:34.711Z,59.97
2019-03-25T02:29:03.576Z,63.37
2019-03-25T02:31:32.481Z,56.20
2019-03-25T02:34:01.320Z,64.10
2019-03-25T02:36:30.222Z,67.30
2019-03-25T02:38:59.065Z,49.70
2019-03-25T02:41:27.920Z,63.43
2019-03-25T02:43:56.812Z,62.93
2019-03-25T02:46:25.613Z,70.67
2019-03-25T02:48:54.497Z,71.63
2019-03-25T02:51:23.337Z,68.97
2019-03-25T02:53:52.161Z,73.23
2019-03-25T02:56:21.001Z,63.70
2019-03-25T02:58:49.820Z,59.17
2019-03-25T03:01:18.705Z,66.60
2019-03-25T03:03:47.511Z,61.50
2019-03-25T03:06:16.391Z,60.87
2019-03-25T03:08:47.476Z,64.73
2019-03-25T03:11:15.788Z,54.43
2019-03-25T03:13:44.655Z,60.13
2019-03-25T03:16:13.502Z,65.67
2019-03-25T03:18:42.407Z,61.53
2019-03-25T03:21:11.232Z,64.17
2019-03-25T03:23:40.084Z,68.07
2019-03-25T03:26:08.955Z,70.33
2019-03-25T03:28:37.749Z,70.00
2019-03-25T03:31:06.697Z,70.40
2019-03-25T03:33:35.659Z,72.33
2019-03-25T03:36:04.649Z,72.23
2019-03-25T03:38:33.446Z,64.93
2019-03-25T03:41:02.509Z,73.70
2019-03-25T03:43:31.341Z,73.43
2019-03-25T03:46:00.192Z,66.67
2019-03-25T03:48:29.078Z,70.93
2019-03-25T03:50:58.445Z,71.83
2019-03-25T03:53:27.908Z,67.97
2019-03-25T03:56:11.485Z,69.63
2019-03-25T03:58:33.924Z,62.53
2019-03-25T04:01:02.966Z,67.07
2019-03-25T04:03:31.852Z,69.37
2019-03-25T04:06:00.976Z,72.43
2019-03-25T04:08:29.806Z,69.07
2019-03-25T04:10:58.749Z,73.47
2019-03-25T04:13:27.595Z,74.27
2019-03-25T04:15:56.422Z,64.53
2019-03-25T04:18:25.293Z,63.00
2019-03-25T04:20:54.126Z,66.53
2019-03-25T04:23:22.973Z,64.63
2019-03-25T04:25:51.789Z,68.67
2019-03-25T04:28:20.648Z,65.03
2019-03-25T04:30:49.465Z,61.07
2019-03-25T04:33:18.332Z,66.03
2019-03-25T04:35:47.153Z,61.97
2019-03-25T04:38:15.991Z,58.70
2019-03-25T04:40:44.866Z,56.67
2019-03-25T04:43:13.731Z,57.40
2019-03-25T04:45:42.534Z,59.97
2019-03-25T04:48:11.398Z,54.37
2019-03-25T04:50:40.265Z,59.17
2019-03-25T04:53:09.113Z,57.43
2019-03-25T04:55:37.968Z,58.57
2019-03-25T04:58:06.841Z,59.53
2019-03-25T05:00:36.719Z,55.43
2019-03-25T05:03:05.658Z,63.47
2019-03-25T05:05:36.071Z,56.57
2019-03-25T05:08:05.070Z,54.30
2019-03-25T05:10:33.966Z,54.90
2019-03-25T05:13:02.774Z,54.03
2019-03-25T05:15:31.665Z,54.00
2019-03-25T05:18:00.478Z,54.27
2019-03-25T05:20:29.342Z,59.47
2019-03-25T05:22:58.251Z,55.70
2019-03-25T05:25:27.098Z,58.77
2019-03-25T05:27:55.933Z,57.27
2019-03-25T05:30:24.791Z,53.60
2019-03-25T05:32:53.662Z,52.70
2019-03-25T05:35:22.563Z,52.60
2019-03-25T05:37:51.462Z,60.47
2019-03-25T05:40:20.357Z,52.40
2019-03-25T05:42:49.267Z,62.70
2019-03-25T05:45:18.155Z,55.43
2019-03-25T05:47:46.972Z,54.30
2019-03-25T05:50:15.834Z,55.23
2019-03-25T05:52:44.692Z,50.80
2019-03-25T05:55:13.571Z,51.00
2019-03-25T05:57:42.441Z,54.07
2019-03-25T06:00:11.577Z,51.43
2019-03-25T06:02:40.401Z,50.33
2019-03-25T06:05:09.412Z,52.37
2019-03-25T06:07:38.209Z,56.33
2019-03-25T06:10:07.466Z,50.23
2019-03-25T06:12:36.291Z,51.97
2019-03-25T06:15:06.651Z,53.97
2019-03-25T06:17:35.509Z,52.87
2019-03-25T06:20:06.127Z,49.57
2019-03-25T06:22:34.992Z,54.50
2019-03-25T06:25:04.616Z,51.90
2019-03-25T06:27:33.488Z,54.43
2019-03-25T06:30:02.309Z,52.47
2019-03-25T06:32:31.171Z,57.17
2019-03-25T06:35:00.002Z,55.57
2019-03-25T06:37:28.927Z,58.20
2019-03-25T06:39:57.757Z,59.03
2019-03-25T06:42:26.608Z,60.80
2019-03-25T06:44:55.447Z,62.80
2019-03-25T06:47:24.348Z,62.50
2019-03-25T06:49:53.187Z,59.57
2019-03-25T06:52:22.009Z,57.97
2019-03-25T06:54:50.876Z,61.30
2019-03-25T06:57:25.606Z,63.90
2019-03-25T06:59:50.211Z,59.13
2019-03-25T07:02:19.108Z,57.20
2019-03-25T07:04:47.907Z,56.17
2019-03-25T07:07:16.794Z,57.23
2019-03-25T07:09:45.688Z,50.83
2019-03-25T07:12:14.519Z,58.73
2019-03-25T07:14:43.383Z,56.33
2019-03-25T07:17:12.564Z,53.43
2019-03-25T07:19:41.432Z,53.47
2019-03-25T07:22:10.254Z,54.10
2019-03-25T07:24:39.132Z,45.63
2019-03-25T07:27:07.966Z,45.17
2019-03-25T07:29:36.836Z,49.87
2019-03-25T07:32:05.657Z,48.10
2019-03-25T07:34:34.557Z,46.17
2019-03-25T07:37:03.448Z,46.10
2019-03-25T07:39:32.337Z,46.40
2019-03-25T07:42:01.585Z,46.23
2019-03-25T07:44:30.452Z,47.80
2019-03-25T07:46:59.318Z,51.17
2019-03-25T07:49:34.666Z,52.40
2019-03-25T07:52:03.484Z,48.03
2019-03-25T07:54:32.367Z,49.23
2019-03-25T07:57:01.353Z,49.97
2019-03-25T07:59:30.218Z,49.43
2019-03-25T08:01:59.025Z,48.83
2019-03-25T08:04:27.874Z,47.37
2019-03-25T08:06:56.778Z,47.17
2019-03-25T08:09:25.574Z,39.67
2019-03-25T08:11:54.447Z,40.83
2019-03-25T08:14:23.292Z,38.53
2019-03-25T08:16:52.172Z,34.10
2019-03-25T08:19:21.025Z,34.70
2019-03-25T08:21:49.932Z,34.70
2019-03-25T08:24:18.785Z,32.00
2019-03-25T08:26:47.592Z,33.40
2019-03-25T08:29:16.505Z,34.57
2019-03-25T08:31:45.342Z,35.37
2019-03-25T08:34:14.221Z,30.97
2019-03-25T08:36:43.053Z,33.33
2019-03-25T08:39:11.889Z,32.33
2019-03-25T08:41:40.853Z,29.77
2019-03-25T08:44:09.749Z,29.87
2019-03-25T08:46:38.641Z,31.83
2019-03-25T08:49:07.496Z,32.57
2019-03-25T08:51:36.373Z,29.20
2019-03-25T08:54:05.242Z,30.40
2019-03-25T08:56:34.244Z,29.53
2019-03-25T08:59:03.113Z,24.53
2019-03-25T09:01:32.017Z,25.27
2019-03-25T09:04:00.826Z,25.83
2019-03-25T09:06:29.685Z,23.73
2019-03-25T09:08:58.543Z,23.73
2019-03-25T09:11:27.388Z,25.23
2019-03-25T09:13:56.228Z,23.20
2019-03-25T09:16:25.062Z,24.93
2019-03-25T09:18:53.925Z,24.03
2019-03-25T09:21:22.801Z,24.03
2019-03-25T09:23:51.662Z,25.70
2019-03-25T09:26:20.520Z,26.87
2019-03-25T09:28:49.402Z,25.23
2019-03-25T09:31:18.767Z,29.60
2019-03-25T09:33:48.391Z,29.53
2019-03-25T09:36:18.457Z,25.93
2019-03-25T09:38:48.013Z,30.03
2019-03-25T09:41:16.888Z,32.60
2019-03-25T09:43:45.754Z,29.97
2019-03-25T09:46:14.698Z,26.70
2019-03-25T09:48:43.578Z,30.97
2019-03-25T09:51:12.394Z,28.83
2019-03-25T09:53:41.292Z,32.03
2019-03-25T09:56:10.141Z,30.47
2019-03-25T09:58:39.037Z,30.20
2019-03-25T10:01:07.922Z,31.67
2019-03-25T10:03:36.737Z,36.40
2019-03-25T10:06:05.752Z,36.80
2019-03-25T10:08:34.605Z,33.50
2019-03-25T10:11:03.440Z,37.63
2019-03-25T10:13:32.302Z,31.77
2019-03-25T10:16:01.107Z,33.07
2019-03-25T10:18:30.028Z,37.17
2019-03-25T10:20:58.862Z,32.70
2019-03-25T10:23:27.753Z,37.87
2019-03-25T10:25:56.610Z,34.63
2019-03-25T10:28:25.436Z,36.30
2019-03-25T10:30:54.268Z,35.83
2019-03-25T10:33:23.193Z,35.70
2019-03-25T10:35:52.040Z,36.37
2019-03-25T10:38:21.714Z,33.73
2019-03-25T10:40:50.574Z,37.53
2019-03-25T10:43:19.466Z,37.50
2019-03-25T10:45:48.349Z,32.63
2019-03-25T10:48:17.192Z,34.07
2019-03-25T10:50:46.025Z,34.40
2019-03-25T10:53:14.899Z,32.83
2019-03-25T10:55:43.786Z,36.10
2019-03-25T10:58:13.447Z,31.17
2019-03-25T11:00:42.386Z,33.63
2019-03-25T11:03:11.204Z,32.83
2019-03-25T11:05:40.060Z,35.63
2019-03-25T11:08:08.880Z,33.37
2019-03-25T11:10:37.745Z,34.07
2019-03-25T11:13:06.735Z,27.30
2019-03-25T11:15:35.556Z,25.87
2019-03-25T11:18:05.822Z,24.17
2019-03-25T11:20:34.858Z,25.20
2019-03-25T11:23:03.722Z,22.77
2019-03-25T11:25:32.574Z,21.20
2019-03-25T11:28:01.405Z,22.97
2019-03-25T11:30:48.138Z,21.80
2019-03-25T11:33:17.050Z,23.17
2019-03-25T11:35:45.886Z,22.83
2019-03-25T11:38:14.772Z,19.57
2019-03-25T11:40:43.636Z,22.33
2019-03-25T11:43:12.475Z,19.57
2019-03-25T11:45:41.310Z,21.33
2019-03-25T11:48:10.234Z,23.20
2019-03-25T11:50:39.111Z,18.77
2019-03-25T11:53:07.980Z,21.33
2019-03-25T11:55:36.796Z,21.03
2019-03-25T11:58:05.693Z,18.33
2019-03-25T12:00:34.536Z,15.80
2019-03-25T12:03:03.342Z,15.63
2019-03-25T12:05:32.222Z,15.20
2019-03-25T12:08:01.100Z,14.77
2019-03-25T12:10:30.024Z,11.50
2019-03-25T12:12:58.872Z,11.50
2019-03-25T12:15:27.777Z,12.53
2019-03-25T12:17:56.640Z,12.80
2019-03-25T12:20:25.471Z,10.00
2019-03-25T12:22:54.329Z,9.37
2019-03-25T12:25:23.198Z,7.60
2019-03-25T12:27:56.993Z,7.17
2019-03-25T12:30:25.793Z,7.20
2019-03-25T12:33:03.567Z,7.97
2019-03-25T12:35:25.279Z,5.97
2019-03-25T12:37:54.157Z,5.53
2019-03-25T12:40:23.020Z,6.73
2019-03-25T12:42:51.892Z,8.03
2019-03-25T12:45:20.833Z,8.27
2019-03-25T12:47:49.718Z,6.50
2019-03-25T12:50:18.512Z,7.23
2019-03-25T12:52:47.348Z,6.43
2019-03-25T12:55:16.220Z,6.07
2019-03-25T12:57:45.098Z,7.63
2019-03-25T13:00:14.502Z,5.97
2019-03-25T13:02:43.381Z,7.43
2019-03-25T13:05:12.916Z,6.43
2019-03-25T13:07:41.782Z,8.30
2019-03-25T13:10:10.756Z,6.27
2019-03-25T13:12:39.557Z,8.03
2019-03-25T13:15:08.653Z,5.67
2019-03-25T13:17:37.507Z,7.20
2019-03-25T13:20:07.053Z,7.07
2019-03-25T13:22:35.920Z,5.73
2019-03-25T13:25:05.991Z,4.63
2019-03-25T13:27:34.875Z,8.33
2019-03-25T13:30:05.308Z,5.73
2019-03-25T13:32:34.195Z,5.97
2019-03-25T13:35:03.061Z,4.70
2019-03-25T13:37:31.975Z,5.67
2019-03-25T13:40:00.895Z,6.37
2019-03-25T13:42:29.726Z,4.77
2019-03-25T13:44:58.632Z,4.97
2019-03-25T13:47:27.504Z,5.87
2019-03-25T13:49:56.328Z,5.70
2019-03-25T13:52:25.188Z,7.07
2019-03-25T13:54:54.013Z,5.40
2019-03-25T13:57:22.858Z,5.40
2019-03-25T13:59:51.697Z,5.90
2019-03-25T14:02:20.577Z,5.23
2019-03-25T14:04:49.385Z,4.57
2019-03-25T14:07:18.257Z,8.50
2019-03-25T14:09:47.138Z,6.17
2019-03-25T14:12:15.976Z,4.23
2019-03-25T14:14:44.862Z,4.20
2019-03-25T14:17:13.718Z,6.77
2019-03-25T14:19:42.592Z,4.30
2019-03-25T14:22:11.443Z,6.40
2019-03-25T14:24:40.265Z,4.80
2019-03-25T14:27:09.128Z,7.43
2019-03-25T14:29:38.020Z,5.30
2019-03-25T14:32:06.937Z,3.83
2019-03-25T14:34:44.397Z,3.00
2019-03-25T14:37:06.346Z,3.67
2019-03-25T14:39:35.215Z,3.40
2019-03-25T14:42:04.118Z,4.10
2019-03-25T14:44:32.995Z,5.17
2019-03-25T14:47:01.813Z,3.73
2019-03-25T14:49:30.725Z,4.77
2019-03-25T14:51:59.537Z,4.57
2019-03-25T14:54:28.382Z,5.67
2019-03-25T14:56:57.246Z,4.03
2019-03-25T14:59:26.128Z,4.07
2019-03-25T15:01:54.978Z,3.57
2019-03-25T15:04:23.828Z,3.63
2019-03-25T15:06:52.655Z,4.27
2019-03-25T15:09:21.484Z,5.07
2019-03-25T15:11:50.354Z,2.33
2019-03-25T15:14:19.169Z,2.07
2019-03-25T15:16:48.123Z,2.40
2019-03-25T15:19:16.962Z,3.20
2019-03-25T15:21:45.837Z,4.93
2019-03-25T15:24:14.760Z,3.00
2019-03-25T15:26:43.644Z,3.40
2019-03-25T15:29:12.497Z,2.33
2019-03-25T15:31:41.385Z,3.53
2019-03-25T15:34:10.272Z,2.90
2019-03-25T15:36:39.122Z,3.80
2019-03-25T15:39:09.211Z,2.83
2019-03-25T15:41:38.126Z,1.50
2019-03-25T15:44:07.018Z,1.63
2019-03-25T15:46:35.919Z,2.43
2019-03-25T15:49:05.417Z,4.20
2019-03-25T15:51:34.202Z,2.33
2019-03-25T15:54:03.079Z,1.83
2019-03-25T15:56:31.876Z,2.07
2019-03-25T15:59:02.916Z,2.13
2019-03-25T16:01:31.241Z,2.17
2019-03-25T16:04:00.051Z,3.17
2019-03-25T16:06:28.932Z,1.10
2019-03-25T16:08:57.740Z,5.93
2019-03-25T16:11:27.193Z,2.70
2019-03-25T16:13:56.020Z,1.97
2019-03-25T16:16:24.987Z,2.50
2019-03-25T16:19:01.216Z,2.83
2019-03-25T16:21:30.078Z,3.00
2019-03-25T16:23:58.887Z,2.17
2019-03-25T16:26:28.287Z,3.53
2019-03-25T16:28:57.105Z,2.37
2019-03-25T16:31:25.987Z,3.57
2019-03-25T16:33:54.808Z,2.77
2019-03-25T16:36:23.665Z,2.60
2019-03-25T16:38:52.558Z,1.93
2019-03-25T16:41:21.347Z,1.87
2019-03-25T16:43:50.267Z,1.60
2019-03-25T16:46:19.548Z,4.70
2019-03-25T16:48:48.406Z,2.87
2019-03-25T16:51:17.286Z,1.70
2019-03-25T16:53:46.117Z,1.33
2019-03-25T16:56:14.983Z,1.90
2019-03-25T16:58:43.884Z,1.63
2019-03-25T17:01:12.703Z,1.73
2019-03-25T17:03:41.517Z,2.07
2019-03-25T17:06:10.407Z,1.83
2019-03-25T17:08:39.286Z,1.90
2019-03-25T17:11:08.216Z,3.17
2019-03-25T17:13:37.073Z,1.73
2019-03-25T17:16:05.896Z,1.20
2019-03-25T17:18:34.752Z,3.23
2019-03-25T17:21:03.589Z,3.30
2019-03-25T17:23:32.403Z,2.47
2019-03-25T17:26:01.270Z,2.37
2019-03-25T17:28:31.655Z,4.70
2019-03-25T17:31:02.901Z,2.47
2019-03-25T17:33:30.966Z,1.70
2019-03-25T17:35:59.830Z,2.50
2019-03-25T17:38:28.682Z,2.70
2019-03-25T17:40:57.550Z,6.87
2019-03-25T17:43:26.421Z,3.10
2019-03-25T17:45:55.262Z,3.77
2019-03-25T17:48:24.125Z,2.23
2019-03-25T17:50:53.055Z,1.70
2019-03-25T17:53:22.011Z,3.77
2019-03-25T17:55:50.905Z,3.37
2019-03-25T17:58:19.746Z,2.87
2019-03-25T18:00:51.562Z,2.33
2019-03-25T18:03:20.411Z,3.53
2019-03-25T18:05:49.253Z,3.67
2019-03-25T18:08:18.136Z,4.00
2019-03-25T18:10:47.046Z,3.10
2019-03-25T18:13:22.322Z,16.23
2019-03-25T18:15:46.365Z,2.90
2019-03-25T18:18:15.179Z,4.23
2019-03-25T18:20:44.041Z,3.63
2019-03-25T18:23:12.894Z,2.17
2019-03-25T18:25:41.731Z,3.83
2019-03-25T18:28:10.575Z,4.90
2019-03-25T18:30:39.402Z,2.30
2019-03-25T18:33:08.226Z,2.53
2019-03-25T18:35:37.117Z,3.43
2019-03-25T18:38:05.983Z,3.07
2019-03-25T18:40:34.819Z,2.70
2019-03-25T18:43:03.792Z,2.43
2019-03-25T18:45:32.697Z,2.17
2019-03-25T18:48:01.539Z,3.30
2019-03-25T18:50:30.427Z,2.53
2019-03-25T18:52:59.401Z,3.40
2019-03-25T18:55:28.191Z,4.23
2019-03-25T18:57:57.189Z,3.63
2019-03-25T19:00:36.017Z,3.17
2019-03-25T19:03:05.390Z,2.80
2019-03-25T19:05:35.876Z,3.30
2019-03-25T19:08:05.774Z,2.77
2019-03-25T19:10:34.826Z,3.50
2019-03-25T19:13:03.725Z,4.77
2019-03-25T19:15:32.573Z,3.03
2019-03-25T19:18:01.448Z,3.73
2019-03-25T19:20:30.299Z,4.17
2019-03-25T19:22:59.144Z,2.93
2019-03-25T19:25:28.074Z,3.47
2019-03-25T19:27:56.877Z,3.80
2019-03-25T19:30:25.789Z,2.80
2019-03-25T19:32:54.646Z,4.20
2019-03-25T19:35:23.512Z,3.60
2019-03-25T19:37:52.364Z,4.33
2019-03-25T19:40:21.338Z,5.00
2019-03-25T19:42:50.243Z,4.63
2019-03-25T19:45:19.283Z,4.17
2019-03-25T19:47:48.164Z,3.63
2019-03-25T19:50:17.703Z,3.90
2019-03-25T19:52:47.826Z,5.20
2019-03-25T19:55:16.721Z,4.70
2019-03-25T19:57:47.222Z,4.70
2019-03-25T20:00:16.227Z,3.80
2019-03-25T20:02:45.090Z,3.63
2019-03-25T20:05:13.974Z,4.20
2019-03-25T20:07:42.910Z,4.13
2019-03-25T20:10:14.860Z,5.43
2019-03-25T20:12:43.751Z,5.27
2019-03-25T20:15:12.743Z,3.30
2019-03-25T20:17:41.566Z,5.90
2019-03-25T20:20:10.494Z,4.00
2019-03-25T20:22:39.316Z,6.17
2019-03-25T20:25:08.294Z,6.33
2019-03-25T20:27:37.118Z,4.17
2019-03-25T20:30:09.000Z,5.43
2019-03-25T20:32:39.289Z,4.70
2019-03-25T20:35:08.194Z,4.10
2019-03-25T20:37:37.101Z,3.63
2019-03-25T20:40:09.769Z,4.23
2019-03-25T20:42:38.697Z,4.80
2019-03-25T20:45:08.695Z,4.33
2019-03-25T20:47:37.625Z,5.53
2019-03-25T20:50:06.808Z,3.67
2019-03-25T20:52:35.656Z,4.27
2019-03-25T20:55:06.794Z,4.80
2019-03-25T20:57:35.703Z,6.07
2019-03-25T21:00:10.248Z,4.00
2019-03-25T21:02:44.958Z,4.30
2019-03-25T21:05:09.924Z,4.80
2019-03-25T21:07:38.806Z,5.23
2019-03-25T21:10:09.206Z,4.57
2019-03-25T21:12:38.709Z,5.70
2019-03-25T21:15:09.944Z,4.57
2019-03-25T21:17:38.972Z,5.37
2019-03-25T21:20:09.917Z,5.43
2019-03-25T21:22:38.788Z,7.03
2019-03-25T21:25:08.104Z,5.60
2019-03-25T21:27:37.218Z,4.87
2019-03-25T21:30:07.607Z,3.50
2019-03-25T21:32:36.487Z,7.80
2019-03-25T21:35:06.549Z,6.13
2019-03-25T21:37:35.469Z,4.40
2019-03-25T21:40:06.882Z,4.63
2019-03-25T21:42:45.533Z,6.50
2019-03-25T21:45:14.528Z,4.77
2019-03-25T21:47:43.477Z,3.87
2019-03-25T21:50:13.136Z,4.67
2019-03-25T21:52:42.015Z,5.93
2019-03-25T21:55:11.969Z,4.97
2019-03-25T21:57:40.893Z,4.73
2019-03-25T22:00:11.075Z,4.17
2019-03-25T22:02:39.997Z,4.50
2019-03-25T22:05:09.209Z,5.57
2019-03-25T22:07:38.038Z,5.67
2019-03-25T22:10:08.194Z,4.03
2019-03-25T22:12:37.029Z,6.20
2019-03-25T22:15:11.311Z,4.10
2019-03-25T22:17:40.284Z,5.27
2019-03-25T22:20:09.776Z,5.63
2019-03-25T22:22:38.605Z,5.77
2019-03-25T22:25:08.982Z,6.30
2019-03-25T22:27:37.762Z,6.03
2019-03-25T22:30:09.299Z,4.57
2019-03-25T22:32:38.163Z,5.37
2019-03-25T22:35:07.462Z,4.97
2019-03-25T22:37:36.342Z,5.73
2019-03-25T22:40:07.112Z,5.97
2019-03-25T22:42:35.942Z,4.73
2019-03-25T22:45:05.992Z,5.20
2019-03-25T22:47:35.548Z,5.43
2019-03-25T22:50:07.057Z,6.10
2019-03-25T22:52:35.954Z,7.17
2019-03-25T22:55:06.525Z,4.60
2019-03-25T22:57:35.415Z,3.97
2019-03-25T23:00:05.767Z,5.23
2019-03-25T23:02:34.639Z,6.90
2019-03-25T23:05:04.091Z,5.50
2019-03-25T23:07:32.935Z,4.23
2019-03-25T23:10:01.707Z,5.97
2019-03-25T23:12:30.594Z,4.17
2019-03-25T23:15:01.528Z,3.83
2019-03-25T23:17:30.361Z,5.47
2019-03-25T23:19:59.235Z,5.10
2019-03-25T23:22:28.070Z,6.33
2019-03-25T23:24:56.901Z,6.67
2019-03-25T23:27:25.791Z,5.53
2019-03-25T23:29:54.587Z,6.97
2019-03-25T23:32:23.457Z,4.60
2019-03-25T23:34:52.449Z,4.20
2019-03-25T23:37:21.253Z,4.70
2019-03-25T23:39:50.122Z,5.40
2019-03-25T23:42:19.037Z,4.07
2019-03-25T23:44:47.948Z,8.17
2019-03-25T23:47:16.763Z,5.13
2019-03-25T23:49:45.634Z,6.57
2019-03-25T23:52:14.438Z,4.57
2019-03-25T23:54:43.296Z,5.20
2019-03-25T23:57:12.419Z,6.63
2019-03-25T23:59:41.327Z,3.63
